sensor_id;sensor_type;location;lat;lon;timestamp;P1;durP1;ratioP1;P2;durP2;ratioP2
34828;SDS011;21042;47.620;12.188;2023-03-14T00:01:12;1.25;;;0.90;;
34828;SDS011;21042;47.620;12.188;2023-03-14T00:03:40;1.70;;;1.00;;
34828;SDS011;21042;47.620;12.188;2023-03-14T00:06:08;1.48;;;1.00;;
34828;SDS011;21042;47.620;12.188;2023-03-14T00:08:35;2.58;;;1.38;;
34828;SDS011;21042;47.620;12.188;2023-03-14T00:13:40;5.80;;;1.55;;
34828;SDS011;21042;47.620;12.188;2023-03-14T00:16:09;4.30;;;1.38;;
34828;SDS011;21042;47.620;12.188;2023-03-14T00:18:37;2.33;;;1.10;;
34828;SDS011;21042;47.620;12.188;2023-03-14T00:21:05;2.42;;;1.10;;
34828;SDS011;21042;47.620;12.188;2023-03-14T00:23:35;2.92;;;1.08;;
34828;SDS011;21042;47.620;12.188;2023-03-14T00:26:03;1.42;;;1.00;;
34828;SDS011;21042;47.620;12.188;2023-03-14T00:28:32;2.63;;;1.35;;
34828;SDS011;21042;47.620;12.188;2023-03-14T00:31:01;2.33;;;1.17;;
34828;SDS011;21042;47.620;12.188;2023-03-14T00:33:32;1.40;;;1.08;;
34828;SDS011;21042;47.620;12.188;2023-03-14T00:36:00;5.30;;;1.10;;
34828;SDS011;21042;47.620;12.188;2023-03-14T00:38:36;2.40;;;1.05;;
34828;SDS011;21042;47.620;12.188;2023-03-14T00:41:05;1.17;;;0.80;;
34828;SDS011;21042;47.620;12.188;2023-03-14T00:43:33;2.92;;;0.95;;
34828;SDS011;21042;47.620;12.188;2023-03-14T00:45:59;5.30;;;1.00;;
34828;SDS011;21042;47.620;12.188;2023-03-14T00:48:27;1.48;;;0.98;;
34828;SDS011;21042;47.620;12.188;2023-03-14T00:50:54;3.95;;;1.08;;
34828;SDS011;21042;47.620;12.188;2023-03-14T00:53:21;1.80;;;1.10;;
34828;SDS011;21042;47.620;12.188;2023-03-14T00:55:48;1.42;;;1.00;;
34828;SDS011;21042;47.620;12.188;2023-03-14T00:58:15;1.08;;;0.70;;
34828;SDS011;21042;47.620;12.188;2023-03-14T01:00:43;2.90;;;1.13;;
34828;SDS011;21042;47.620;12.188;2023-03-14T01:03:14;1.23;;;0.85;;
34828;SDS011;21042;47.620;12.188;2023-03-14T01:05:41;1.50;;;0.90;;
34828;SDS011;21042;47.620;12.188;2023-03-14T01:08:08;1.20;;;0.80;;
34828;SDS011;21042;47.620;12.188;2023-03-14T01:10:37;2.58;;;1.20;;
34828;SDS011;21042;47.620;12.188;2023-03-14T01:13:05;1.90;;;1.02;;
34828;SDS011;21042;47.620;12.188;2023-03-14T01:15:35;1.45;;;0.88;;
34828;SDS011;21042;47.620;12.188;2023-03-14T01:18:03;3.20;;;0.80;;
34828;SDS011;21042;47.620;12.188;2023-03-14T01:22:57;5.25;;;1.55;;
34828;SDS011;21042;47.620;12.188;2023-03-14T01:25:24;3.42;;;1.40;;
34828;SDS011;21042;47.620;12.188;2023-03-14T01:27:51;3.53;;;1.13;;
34828;SDS011;21042;47.620;12.188;2023-03-14T01:30:17;4.45;;;1.05;;
34828;SDS011;21042;47.620;12.188;2023-03-14T01:32:45;1.60;;;0.93;;
34828;SDS011;21042;47.620;12.188;2023-03-14T01:35:12;2.58;;;0.75;;
34828;SDS011;21042;47.620;12.188;2023-03-14T01:37:39;2.38;;;1.15;;
34828;SDS011;21042;47.620;12.188;2023-03-14T01:40:11;3.33;;;1.23;;
34828;SDS011;21042;47.620;12.188;2023-03-14T01:42:44;1.30;;;0.77;;
34828;SDS011;21042;47.620;12.188;2023-03-14T01:48:27;1.30;;;0.82;;
34828;SDS011;21042;47.620;12.188;2023-03-14T01:50:59;2.10;;;0.70;;
34828;SDS011;21042;47.620;12.188;2023-03-14T01:53:27;1.83;;;0.80;;
34828;SDS011;21042;47.620;12.188;2023-03-14T01:55:54;1.73;;;1.00;;
34828;SDS011;21042;47.620;12.188;2023-03-14T01:58:25;1.15;;;0.80;;
34828;SDS011;21042;47.620;12.188;2023-03-14T02:00:55;1.33;;;0.70;;
34828;SDS011;21042;47.620;12.188;2023-03-14T02:03:23;3.92;;;0.80;;
34828;SDS011;21042;47.620;12.188;2023-03-14T02:05:51;4.03;;;0.73;;
34828;SDS011;21042;47.620;12.188;2023-03-14T02:08:22;2.25;;;0.80;;
34828;SDS011;21042;47.620;12.188;2023-03-14T02:10:54;1.60;;;1.00;;
34828;SDS011;21042;47.620;12.188;2023-03-14T02:13:40;1.98;;;1.05;;
34828;SDS011;21042;47.620;12.188;2023-03-14T02:16:25;1.50;;;0.70;;
34828;SDS011;21042;47.620;12.188;2023-03-14T02:19:09;2.45;;;0.50;;
34828;SDS011;21042;47.620;12.188;2023-03-14T02:27:13;1.65;;;0.88;;
34828;SDS011;21042;47.620;12.188;2023-03-14T02:32:22;1.30;;;0.70;;
34828;SDS011;21042;47.620;12.188;2023-03-14T02:34:54;1.67;;;0.73;;
34828;SDS011;21042;47.620;12.188;2023-03-14T02:37:27;0.80;;;0.60;;
34828;SDS011;21042;47.620;12.188;2023-03-14T02:40:05;4.13;;;0.73;;
34828;SDS011;21042;47.620;12.188;2023-03-14T02:42:33;0.70;;;0.70;;
34828;SDS011;21042;47.620;12.188;2023-03-14T02:47:39;1.23;;;0.60;;
34828;SDS011;21042;47.620;12.188;2023-03-14T02:50:38;0.40;;;0.40;;
34828;SDS011;21042;47.620;12.188;2023-03-14T02:55:32;2.25;;;0.50;;
34828;SDS011;21042;47.620;12.188;2023-03-14T02:58:03;0.40;;;0.40;;
34828;SDS011;21042;47.620;12.188;2023-03-14T03:00:30;2.35;;;0.60;;
34828;SDS011;21042;47.620;12.188;2023-03-14T03:02:57;3.25;;;0.85;;
34828;SDS011;21042;47.620;12.188;2023-03-14T03:05:24;2.53;;;0.90;;
34828;SDS011;21042;47.620;12.188;2023-03-14T03:07:51;1.02;;;0.60;;
34828;SDS011;21042;47.620;12.188;2023-03-14T03:10:17;2.70;;;0.60;;
34828;SDS011;21042;47.620;12.188;2023-03-14T03:12:45;1.48;;;0.68;;
34828;SDS011;21042;47.620;12.188;2023-03-14T03:15:12;1.25;;;0.60;;
34828;SDS011;21042;47.620;12.188;2023-03-14T03:17:39;1.35;;;0.80;;
34828;SDS011;21042;47.620;12.188;2023-03-14T03:20:06;2.25;;;0.50;;
34828;SDS011;21042;47.620;12.188;2023-03-14T03:22:35;1.98;;;0.80;;
34828;SDS011;21042;47.620;12.188;2023-03-14T03:25:03;2.35;;;0.80;;
34828;SDS011;21042;47.620;12.188;2023-03-14T03:27:31;3.42;;;0.68;;
34828;SDS011;21042;47.620;12.188;2023-03-14T03:30:00;0.73;;;0.38;;
34828;SDS011;21042;47.620;12.188;2023-03-14T03:32:31;1.00;;;0.43;;
34828;SDS011;21042;47.620;12.188;2023-03-14T03:34:58;0.15;;;0.10;;
34828;SDS011;21042;47.620;12.188;2023-03-14T03:37:24;1.67;;;0.10;;
34828;SDS011;21042;47.620;12.188;2023-03-14T03:39:51;0.40;;;0.30;;
34828;SDS011;21042;47.620;12.188;2023-03-14T03:42:18;0.25;;;0.25;;
34828;SDS011;21042;47.620;12.188;2023-03-14T03:44:45;0.43;;;0.22;;
34828;SDS011;21042;47.620;12.188;2023-03-14T03:47:13;0.93;;;0.20;;
34828;SDS011;21042;47.620;12.188;2023-03-14T03:49:40;0.82;;;0.20;;
34828;SDS011;21042;47.620;12.188;2023-03-14T03:52:09;0.75;;;0.10;;
34828;SDS011;21042;47.620;12.188;2023-03-14T03:54:36;1.05;;;0.40;;
34828;SDS011;21042;47.620;12.188;2023-03-14T03:57:03;3.78;;;0.20;;
34828;SDS011;21042;47.620;12.188;2023-03-14T03:59:29;0.57;;;0.20;;
34828;SDS011;21042;47.620;12.188;2023-03-14T04:04:55;0.20;;;0.20;;
34828;SDS011;21042;47.620;12.188;2023-03-14T04:07:22;1.63;;;0.40;;
34828;SDS011;21042;47.620;12.188;2023-03-14T04:09:49;2.20;;;0.20;;
34828;SDS011;21042;47.620;12.188;2023-03-14T04:12:45;2.05;;;0.20;;
34828;SDS011;21042;47.620;12.188;2023-03-14T04:15:17;5.82;;;0.50;;
34828;SDS011;21042;47.620;12.188;2023-03-14T04:17:47;0.50;;;0.30;;
34828;SDS011;21042;47.620;12.188;2023-03-14T04:20:15;3.50;;;0.40;;
34828;SDS011;21042;47.620;12.188;2023-03-14T04:22:41;1.27;;;1.00;;
34828;SDS011;21042;47.620;12.188;2023-03-14T04:25:10;1.98;;;0.43;;
34828;SDS011;21042;47.620;12.188;2023-03-14T04:27:41;2.15;;;0.75;;
34828;SDS011;21042;47.620;12.188;2023-03-14T04:30:16;1.42;;;0.32;;
34828;SDS011;21042;47.620;12.188;2023-03-14T04:32:51;2.83;;;0.77;;
34828;SDS011;21042;47.620;12.188;2023-03-14T04:35:19;1.15;;;0.50;;
34828;SDS011;21042;47.620;12.188;2023-03-14T04:37:47;2.20;;;0.30;;
34828;SDS011;21042;47.620;12.188;2023-03-14T04:40:16;0.82;;;0.17;;
34828;SDS011;21042;47.620;12.188;2023-03-14T04:42:44;0.38;;;0.30;;
34828;SDS011;21042;47.620;12.188;2023-03-14T04:45:12;1.60;;;0.40;;
34828;SDS011;21042;47.620;12.188;2023-03-14T04:47:40;1.20;;;0.50;;
34828;SDS011;21042;47.620;12.188;2023-03-14T04:50:11;2.22;;;0.60;;
34828;SDS011;21042;47.620;12.188;2023-03-14T04:52:38;1.27;;;0.50;;
34828;SDS011;21042;47.620;12.188;2023-03-14T04:55:05;1.25;;;0.32;;
34828;SDS011;21042;47.620;12.188;2023-03-14T04:57:31;2.67;;;1.13;;
34828;SDS011;21042;47.620;12.188;2023-03-14T04:59:58;0.43;;;0.30;;
34828;SDS011;21042;47.620;12.188;2023-03-14T05:02:43;0.95;;;0.43;;
34828;SDS011;21042;47.620;12.188;2023-03-14T05:05:28;1.02;;;0.50;;
34828;SDS011;21042;47.620;12.188;2023-03-14T05:08:14;1.35;;;0.40;;
34828;SDS011;21042;47.620;12.188;2023-03-14T05:11:01;3.60;;;0.40;;
34828;SDS011;21042;47.620;12.188;2023-03-14T05:13:48;0.98;;;0.40;;
34828;SDS011;21042;47.620;12.188;2023-03-14T05:16:32;0.52;;;0.20;;
34828;SDS011;21042;47.620;12.188;2023-03-14T05:19:22;2.88;;;0.60;;
34828;SDS011;21042;47.620;12.188;2023-03-14T05:22:07;1.67;;;0.60;;
34828;SDS011;21042;47.620;12.188;2023-03-14T05:24:57;1.38;;;0.60;;
34828;SDS011;21042;47.620;12.188;2023-03-14T05:27:43;3.05;;;0.77;;
34828;SDS011;21042;47.620;12.188;2023-03-14T05:30:45;3.25;;;1.00;;
34828;SDS011;21042;47.620;12.188;2023-03-14T05:33:41;2.30;;;0.73;;
34828;SDS011;21042;47.620;12.188;2023-03-14T05:36:34;4.57;;;0.80;;
34828;SDS011;21042;47.620;12.188;2023-03-14T05:39:19;3.92;;;0.70;;
34828;SDS011;21042;47.620;12.188;2023-03-14T05:42:05;2.03;;;0.30;;
34828;SDS011;21042;47.620;12.188;2023-03-14T05:44:50;1.02;;;0.60;;
34828;SDS011;21042;47.620;12.188;2023-03-14T05:47:44;4.35;;;1.92;;
34828;SDS011;21042;47.620;12.188;2023-03-14T05:50:30;1.98;;;1.35;;
34828;SDS011;21042;47.620;12.188;2023-03-14T05:53:15;2.72;;;1.80;;
34828;SDS011;21042;47.620;12.188;2023-03-14T05:56:12;1.10;;;0.75;;
34828;SDS011;21042;47.620;12.188;2023-03-14T05:58:55;3.28;;;0.70;;
34828;SDS011;21042;47.620;12.188;2023-03-14T06:01:34;1.80;;;0.75;;
34828;SDS011;21042;47.620;12.188;2023-03-14T06:04:15;1.08;;;0.85;;
34828;SDS011;21042;47.620;12.188;2023-03-14T06:06:46;4.40;;;1.60;;
34828;SDS011;21042;47.620;12.188;2023-03-14T06:09:14;3.15;;;1.60;;
34828;SDS011;21042;47.620;12.188;2023-03-14T06:11:42;4.25;;;1.48;;
34828;SDS011;21042;47.620;12.188;2023-03-14T06:16:40;4.43;;;1.70;;
34828;SDS011;21042;47.620;12.188;2023-03-14T06:19:08;2.22;;;1.48;;
34828;SDS011;21042;47.620;12.188;2023-03-14T06:21:36;2.20;;;1.48;;
34828;SDS011;21042;47.620;12.188;2023-03-14T06:24:02;2.65;;;1.58;;
34828;SDS011;21042;47.620;12.188;2023-03-14T06:26:34;4.03;;;1.80;;
34828;SDS011;21042;47.620;12.188;2023-03-14T06:29:01;2.97;;;1.70;;
34828;SDS011;21042;47.620;12.188;2023-03-14T06:31:47;2.83;;;1.75;;
34828;SDS011;21042;47.620;12.188;2023-03-14T06:34:19;4.13;;;2.17;;
34828;SDS011;21042;47.620;12.188;2023-03-14T06:36:46;4.25;;;1.88;;
34828;SDS011;21042;47.620;12.188;2023-03-14T06:39:13;2.63;;;1.70;;
34828;SDS011;21042;47.620;12.188;2023-03-14T06:41:43;3.53;;;1.90;;
34828;SDS011;21042;47.620;12.188;2023-03-14T06:44:11;2.38;;;1.70;;
34828;SDS011;21042;47.620;12.188;2023-03-14T06:46:38;2.58;;;1.63;;
34828;SDS011;21042;47.620;12.188;2023-03-14T06:49:05;2.85;;;2.00;;
34828;SDS011;21042;47.620;12.188;2023-03-14T06:51:32;4.20;;;2.08;;
34828;SDS011;21042;47.620;12.188;2023-03-14T06:54:02;4.75;;;3.03;;
34828;SDS011;21042;47.620;12.188;2023-03-14T06:56:29;6.65;;;3.15;;
34828;SDS011;21042;47.620;12.188;2023-03-14T07:01:27;8.00;;;3.25;;
34828;SDS011;21042;47.620;12.188;2023-03-14T07:04:03;7.43;;;4.60;;
34828;SDS011;21042;47.620;12.188;2023-03-14T07:06:32;8.30;;;4.25;;
34828;SDS011;21042;47.620;12.188;2023-03-14T07:08:59;10.07;;;4.93;;
34828;SDS011;21042;47.620;12.188;2023-03-14T07:11:29;6.60;;;3.40;;
34828;SDS011;21042;47.620;12.188;2023-03-14T07:13:56;8.40;;;3.20;;
34828;SDS011;21042;47.620;12.188;2023-03-14T07:16:23;7.88;;;3.58;;
34828;SDS011;21042;47.620;12.188;2023-03-14T07:18:50;4.38;;;2.80;;
34828;SDS011;21042;47.620;12.188;2023-03-14T07:21:18;8.63;;;3.40;;
34828;SDS011;21042;47.620;12.188;2023-03-14T07:23:45;4.75;;;3.05;;
34828;SDS011;21042;47.620;12.188;2023-03-14T07:26:12;5.20;;;2.80;;
34828;SDS011;21042;47.620;12.188;2023-03-14T07:28:44;6.60;;;2.80;;
34828;SDS011;21042;47.620;12.188;2023-03-14T07:31:15;9.63;;;5.60;;
34828;SDS011;21042;47.620;12.188;2023-03-14T07:33:42;7.97;;;2.97;;
34828;SDS011;21042;47.620;12.188;2023-03-14T07:36:09;5.45;;;2.40;;
34828;SDS011;21042;47.620;12.188;2023-03-14T07:38:37;4.57;;;2.47;;
34828;SDS011;21042;47.620;12.188;2023-03-14T07:41:15;4.22;;;2.58;;
34828;SDS011;21042;47.620;12.188;2023-03-14T07:44:04;9.70;;;4.30;;
34828;SDS011;21042;47.620;12.188;2023-03-14T07:46:31;15.23;;;4.18;;
34828;SDS011;21042;47.620;12.188;2023-03-14T07:48:58;7.65;;;2.00;;
34828;SDS011;21042;47.620;12.188;2023-03-14T07:51:24;4.35;;;2.50;;
34828;SDS011;21042;47.620;12.188;2023-03-14T07:53:51;8.40;;;4.15;;
34828;SDS011;21042;47.620;12.188;2023-03-14T07:56:18;6.10;;;2.80;;
34828;SDS011;21042;47.620;12.188;2023-03-14T07:58:44;5.82;;;2.25;;
34828;SDS011;21042;47.620;12.188;2023-03-14T08:01:11;2.75;;;1.63;;
34828;SDS011;21042;47.620;12.188;2023-03-14T08:03:38;2.92;;;1.70;;
34828;SDS011;21042;47.620;12.188;2023-03-14T08:06:04;5.60;;;2.13;;
34828;SDS011;21042;47.620;12.188;2023-03-14T08:08:31;3.95;;;1.67;;
34828;SDS011;21042;47.620;12.188;2023-03-14T08:11:05;5.00;;;1.70;;
34828;SDS011;21042;47.620;12.188;2023-03-14T08:13:35;3.55;;;1.60;;
34828;SDS011;21042;47.620;12.188;2023-03-14T08:16:02;2.10;;;1.23;;
34828;SDS011;21042;47.620;12.188;2023-03-14T08:18:30;2.45;;;1.92;;
34828;SDS011;21042;47.620;12.188;2023-03-14T08:20:57;3.65;;;1.90;;
34828;SDS011;21042;47.620;12.188;2023-03-14T08:23:24;6.85;;;2.65;;
34828;SDS011;21042;47.620;12.188;2023-03-14T08:25:51;3.47;;;1.50;;
34828;SDS011;21042;47.620;12.188;2023-03-14T08:28:18;5.63;;;2.20;;
34828;SDS011;21042;47.620;12.188;2023-03-14T08:30:45;4.10;;;2.10;;
34828;SDS011;21042;47.620;12.188;2023-03-14T08:33:13;7.13;;;2.83;;
34828;SDS011;21042;47.620;12.188;2023-03-14T08:35:39;6.68;;;2.15;;
34828;SDS011;21042;47.620;12.188;2023-03-14T08:38:06;6.50;;;2.42;;
34828;SDS011;21042;47.620;12.188;2023-03-14T08:40:33;4.97;;;2.80;;
34828;SDS011;21042;47.620;12.188;2023-03-14T08:43:00;4.20;;;2.35;;
34828;SDS011;21042;47.620;12.188;2023-03-14T08:45:26;3.88;;;2.28;;
34828;SDS011;21042;47.620;12.188;2023-03-14T08:47:53;15.48;;;3.10;;
34828;SDS011;21042;47.620;12.188;2023-03-14T08:50:20;2.50;;;1.55;;
34828;SDS011;21042;47.620;12.188;2023-03-14T08:52:47;4.75;;;1.60;;
34828;SDS011;21042;47.620;12.188;2023-03-14T08:55:13;14.02;;;1.90;;
34828;SDS011;21042;47.620;12.188;2023-03-14T08:57:40;3.75;;;1.23;;
34828;SDS011;21042;47.620;12.188;2023-03-14T09:00:07;5.65;;;2.00;;
34828;SDS011;21042;47.620;12.188;2023-03-14T09:02:38;3.72;;;1.52;;
34828;SDS011;21042;47.620;12.188;2023-03-14T09:05:05;5.95;;;2.17;;
34828;SDS011;21042;47.620;12.188;2023-03-14T09:07:32;117.35;;;7.57;;
34828;SDS011;21042;47.620;12.188;2023-03-14T09:09:59;128.10;;;11.10;;
34828;SDS011;21042;47.620;12.188;2023-03-14T09:12:26;5.50;;;2.63;;
34828;SDS011;21042;47.620;12.188;2023-03-14T09:14:53;5.65;;;2.90;;
34828;SDS011;21042;47.620;12.188;2023-03-14T09:17:19;9.73;;;3.92;;
34828;SDS011;21042;47.620;12.188;2023-03-14T09:19:46;5.82;;;4.32;;
34828;SDS011;21042;47.620;12.188;2023-03-14T09:22:13;4.88;;;2.58;;
34828;SDS011;21042;47.620;12.188;2023-03-14T09:24:40;2.25;;;1.42;;
34828;SDS011;21042;47.620;12.188;2023-03-14T09:29:34;4.03;;;1.60;;
34828;SDS011;21042;47.620;12.188;2023-03-14T09:32:01;5.00;;;1.60;;
34828;SDS011;21042;47.620;12.188;2023-03-14T09:34:27;6.22;;;1.50;;
34828;SDS011;21042;47.620;12.188;2023-03-14T09:36:54;3.08;;;1.13;;
34828;SDS011;21042;47.620;12.188;2023-03-14T09:39:21;2.78;;;1.10;;
34828;SDS011;21042;47.620;12.188;2023-03-14T09:41:48;2.65;;;1.30;;
34828;SDS011;21042;47.620;12.188;2023-03-14T09:44:33;2.33;;;1.23;;
34828;SDS011;21042;47.620;12.188;2023-03-14T09:47:07;3.80;;;1.40;;
34828;SDS011;21042;47.620;12.188;2023-03-14T09:49:39;4.47;;;2.30;;
34828;SDS011;21042;47.620;12.188;2023-03-14T09:52:29;6.75;;;3.30;;
34828;SDS011;21042;47.620;12.188;2023-03-14T09:55:05;1.90;;;0.80;;
34828;SDS011;21042;47.620;12.188;2023-03-14T09:57:38;4.20;;;1.00;;
34828;SDS011;21042;47.620;12.188;2023-03-14T10:00:21;1.75;;;1.20;;
34828;SDS011;21042;47.620;12.188;2023-03-14T10:02:53;6.28;;;2.97;;
34828;SDS011;21042;47.620;12.188;2023-03-14T10:05:28;2.47;;;1.13;;
34828;SDS011;21042;47.620;12.188;2023-03-14T10:07:55;2.33;;;1.40;;
34828;SDS011;21042;47.620;12.188;2023-03-14T10:10:23;1.00;;;0.90;;
34828;SDS011;21042;47.620;12.188;2023-03-14T10:12:55;3.20;;;1.13;;
34828;SDS011;21042;47.620;12.188;2023-03-14T10:15:31;1.70;;;0.98;;
34828;SDS011;21042;47.620;12.188;2023-03-14T10:18:01;1.38;;;0.40;;
34828;SDS011;21042;47.620;12.188;2023-03-14T10:20:33;1.20;;;0.70;;
34828;SDS011;21042;47.620;12.188;2023-03-14T10:23:06;2.60;;;1.00;;
34828;SDS011;21042;47.620;12.188;2023-03-14T10:26:03;2.50;;;0.93;;
34828;SDS011;21042;47.620;12.188;2023-03-14T10:28:47;2.13;;;1.05;;
34828;SDS011;21042;47.620;12.188;2023-03-14T10:31:17;2.63;;;1.05;;
34828;SDS011;21042;47.620;12.188;2023-03-14T10:33:57;3.33;;;1.20;;
34828;SDS011;21042;47.620;12.188;2023-03-14T10:36:29;2.78;;;1.00;;
34828;SDS011;21042;47.620;12.188;2023-03-14T10:39:14;2.47;;;0.93;;
34828;SDS011;21042;47.620;12.188;2023-03-14T10:41:48;1.58;;;0.40;;
34828;SDS011;21042;47.620;12.188;2023-03-14T10:44:20;5.32;;;0.55;;
34828;SDS011;21042;47.620;12.188;2023-03-14T10:46:56;1.45;;;0.63;;
34828;SDS011;21042;47.620;12.188;2023-03-14T10:49:28;0.43;;;0.20;;
34828;SDS011;21042;47.620;12.188;2023-03-14T10:52:24;0.90;;;0.47;;
34828;SDS011;21042;47.620;12.188;2023-03-14T10:55:13;2.30;;;0.80;;
34828;SDS011;21042;47.620;12.188;2023-03-14T10:57:40;1.98;;;1.15;;
34828;SDS011;21042;47.620;12.188;2023-03-14T11:02:51;3.63;;;1.50;;
34828;SDS011;21042;47.620;12.188;2023-03-14T11:05:37;3.28;;;1.70;;
34828;SDS011;21042;47.620;12.188;2023-03-14T11:11:14;6.07;;;3.00;;
34828;SDS011;21042;47.620;12.188;2023-03-14T11:19:24;5.00;;;1.40;;
34828;SDS011;21042;47.620;12.188;2023-03-14T11:21:58;1.77;;;0.77;;
34828;SDS011;21042;47.620;12.188;2023-03-14T11:24:53;3.72;;;0.63;;
34828;SDS011;21042;47.620;12.188;2023-03-14T11:27:31;0.60;;;0.32;;
34828;SDS011;21042;47.620;12.188;2023-03-14T11:33:03;1.10;;;0.85;;
34828;SDS011;21042;47.620;12.188;2023-03-14T11:35:45;2.35;;;1.20;;
34828;SDS011;21042;47.620;12.188;2023-03-14T11:38:28;4.82;;;2.05;;
34828;SDS011;21042;47.620;12.188;2023-03-14T11:40:57;6.63;;;0.68;;
34828;SDS011;21042;47.620;12.188;2023-03-14T11:43:29;1.77;;;0.82;;
34828;SDS011;21042;47.620;12.188;2023-03-14T11:46:03;1.48;;;0.40;;
34828;SDS011;21042;47.620;12.188;2023-03-14T11:51:52;0.43;;;0.43;;
34828;SDS011;21042;47.620;12.188;2023-03-14T11:57:17;1.08;;;0.63;;
34828;SDS011;21042;47.620;12.188;2023-03-14T11:59:55;0.95;;;0.50;;
34828;SDS011;21042;47.620;12.188;2023-03-14T12:02:48;0.80;;;0.57;;
34828;SDS011;21042;47.620;12.188;2023-03-14T12:05:30;1.08;;;0.30;;
34828;SDS011;21042;47.620;12.188;2023-03-14T12:14:00;1.48;;;0.50;;
34828;SDS011;21042;47.620;12.188;2023-03-14T12:19:13;0.43;;;0.43;;
34828;SDS011;21042;47.620;12.188;2023-03-14T12:21:51;0.50;;;0.20;;
34828;SDS011;21042;47.620;12.188;2023-03-14T12:24:28;0.43;;;0.30;;
34828;SDS011;21042;47.620;12.188;2023-03-14T12:26:59;1.52;;;0.80;;
34828;SDS011;21042;47.620;12.188;2023-03-14T12:29:28;0.30;;;0.30;;
34828;SDS011;21042;47.620;12.188;2023-03-14T12:34:46;1.80;;;0.90;;
34828;SDS011;21042;47.620;12.188;2023-03-14T12:40:03;1.38;;;0.80;;
34828;SDS011;21042;47.620;12.188;2023-03-14T12:42:51;1.00;;;0.70;;
34828;SDS011;21042;47.620;12.188;2023-03-14T12:48:03;1.45;;;0.50;;
34828;SDS011;21042;47.620;12.188;2023-03-14T12:50:54;0.52;;;0.30;;
34828;SDS011;21042;47.620;12.188;2023-03-14T12:58:49;1.90;;;0.77;;
34828;SDS011;21042;47.620;12.188;2023-03-14T13:01:36;1.83;;;0.85;;
34828;SDS011;21042;47.620;12.188;2023-03-14T13:04:04;0.57;;;0.30;;
34828;SDS011;21042;47.620;12.188;2023-03-14T13:06:55;0.70;;;0.30;;
34828;SDS011;21042;47.620;12.188;2023-03-14T13:12:09;3.08;;;0.30;;
34828;SDS011;21042;47.620;12.188;2023-03-14T13:14:41;0.70;;;0.30;;
34828;SDS011;21042;47.620;12.188;2023-03-14T13:17:12;0.80;;;0.60;;
34828;SDS011;21042;47.620;12.188;2023-03-14T13:20:01;0.82;;;0.30;;
34828;SDS011;21042;47.620;12.188;2023-03-14T13:22:35;0.52;;;0.30;;
34828;SDS011;21042;47.620;12.188;2023-03-14T13:25:09;3.03;;;2.00;;
34828;SDS011;21042;47.620;12.188;2023-03-14T13:27:37;1.17;;;0.50;;
34828;SDS011;21042;47.620;12.188;2023-03-14T13:30:05;0.85;;;0.60;;
34828;SDS011;21042;47.620;12.188;2023-03-14T13:35:22;0.73;;;0.55;;
34828;SDS011;21042;47.620;12.188;2023-03-14T13:37:58;0.85;;;0.38;;
34828;SDS011;21042;47.620;12.188;2023-03-14T13:40:37;1.85;;;0.60;;
34828;SDS011;21042;47.620;12.188;2023-03-14T13:43:18;0.47;;;0.40;;
34828;SDS011;21042;47.620;12.188;2023-03-14T13:45:55;1.83;;;0.30;;
34828;SDS011;21042;47.620;12.188;2023-03-14T13:48:36;0.40;;;0.40;;
34828;SDS011;21042;47.620;12.188;2023-03-14T13:51:19;2.80;;;0.63;;
34828;SDS011;21042;47.620;12.188;2023-03-14T13:53:51;1.35;;;0.80;;
34828;SDS011;21042;47.620;12.188;2023-03-14T13:56:23;3.35;;;0.90;;
34828;SDS011;21042;47.620;12.188;2023-03-14T13:58:52;1.50;;;0.70;;
34828;SDS011;21042;47.620;12.188;2023-03-14T14:01:22;1.83;;;1.00;;
34828;SDS011;21042;47.620;12.188;2023-03-14T14:04:01;0.75;;;0.45;;
34828;SDS011;21042;47.620;12.188;2023-03-14T14:06:36;0.98;;;0.47;;
34828;SDS011;21042;47.620;12.188;2023-03-14T14:09:12;0.75;;;0.50;;
34828;SDS011;21042;47.620;12.188;2023-03-14T14:11:54;2.85;;;0.93;;
34828;SDS011;21042;47.620;12.188;2023-03-14T14:14:45;1.88;;;0.82;;
34828;SDS011;21042;47.620;12.188;2023-03-14T14:17:24;0.85;;;0.50;;
34828;SDS011;21042;47.620;12.188;2023-03-14T14:19:59;1.80;;;0.95;;
34828;SDS011;21042;47.620;12.188;2023-03-14T14:22:29;6.00;;;3.17;;
34828;SDS011;21042;47.620;12.188;2023-03-14T14:27:26;0.77;;;0.60;;
34828;SDS011;21042;47.620;12.188;2023-03-14T14:30:05;0.50;;;0.50;;
34828;SDS011;21042;47.620;12.188;2023-03-14T14:32:50;1.60;;;0.40;;
34828;SDS011;21042;47.620;12.188;2023-03-14T14:35:34;1.55;;;0.60;;
34828;SDS011;21042;47.620;12.188;2023-03-14T14:38:02;0.65;;;0.50;;
34828;SDS011;21042;47.620;12.188;2023-03-14T14:40:35;1.20;;;1.00;;
34828;SDS011;21042;47.620;12.188;2023-03-14T14:43:12;1.92;;;1.00;;
34828;SDS011;21042;47.620;12.188;2023-03-14T14:45:45;0.98;;;0.55;;
34828;SDS011;21042;47.620;12.188;2023-03-14T14:48:13;3.13;;;1.20;;
34828;SDS011;21042;47.620;12.188;2023-03-14T14:53:19;3.20;;;2.20;;
34828;SDS011;21042;47.620;12.188;2023-03-14T14:55:53;2.90;;;1.73;;
34828;SDS011;21042;47.620;12.188;2023-03-14T14:58:27;1.98;;;1.42;;
34828;SDS011;21042;47.620;12.188;2023-03-14T15:01:16;1.17;;;1.00;;
34828;SDS011;21042;47.620;12.188;2023-03-14T15:03:49;1.27;;;0.80;;
34828;SDS011;21042;47.620;12.188;2023-03-14T15:06:17;0.93;;;0.80;;
34828;SDS011;21042;47.620;12.188;2023-03-14T15:08:45;4.32;;;1.60;;
34828;SDS011;21042;47.620;12.188;2023-03-14T15:11:16;6.50;;;1.77;;
34828;SDS011;21042;47.620;12.188;2023-03-14T15:13:49;3.75;;;1.38;;
34828;SDS011;21042;47.620;12.188;2023-03-14T15:16:20;4.90;;;1.60;;
34828;SDS011;21042;47.620;12.188;2023-03-14T15:18:58;4.60;;;1.17;;
34828;SDS011;21042;47.620;12.188;2023-03-14T15:21:49;3.38;;;0.93;;
34828;SDS011;21042;47.620;12.188;2023-03-14T15:24:16;4.35;;;1.73;;
34828;SDS011;21042;47.620;12.188;2023-03-14T15:26:43;3.47;;;1.80;;
34828;SDS011;21042;47.620;12.188;2023-03-14T15:29:11;4.18;;;1.77;;
34828;SDS011;21042;47.620;12.188;2023-03-14T15:31:39;9.90;;;4.40;;
34828;SDS011;21042;47.620;12.188;2023-03-14T15:34:06;13.55;;;4.95;;
34828;SDS011;21042;47.620;12.188;2023-03-14T15:36:33;6.53;;;4.47;;
34828;SDS011;21042;47.620;12.188;2023-03-14T15:39:01;3.78;;;2.15;;
34828;SDS011;21042;47.620;12.188;2023-03-14T15:41:29;13.77;;;6.82;;
34828;SDS011;21042;47.620;12.188;2023-03-14T15:43:56;7.80;;;3.60;;
34828;SDS011;21042;47.620;12.188;2023-03-14T15:46:23;4.80;;;2.10;;
34828;SDS011;21042;47.620;12.188;2023-03-14T15:48:50;6.97;;;2.05;;
34828;SDS011;21042;47.620;12.188;2023-03-14T15:51:18;4.18;;;1.92;;
34828;SDS011;21042;47.620;12.188;2023-03-14T15:53:45;3.80;;;1.88;;
34828;SDS011;21042;47.620;12.188;2023-03-14T15:56:13;2.28;;;1.42;;
34828;SDS011;21042;47.620;12.188;2023-03-14T15:58:42;2.70;;;1.45;;
34828;SDS011;21042;47.620;12.188;2023-03-14T16:01:13;3.28;;;1.40;;
34828;SDS011;21042;47.620;12.188;2023-03-14T16:03:42;4.13;;;1.48;;
34828;SDS011;21042;47.620;12.188;2023-03-14T16:06:11;2.30;;;1.20;;
34828;SDS011;21042;47.620;12.188;2023-03-14T16:08:38;2.47;;;1.17;;
34828;SDS011;21042;47.620;12.188;2023-03-14T16:11:05;1.88;;;1.08;;
34828;SDS011;21042;47.620;12.188;2023-03-14T16:13:32;2.15;;;1.27;;
34828;SDS011;21042;47.620;12.188;2023-03-14T16:16:00;1.65;;;1.15;;
34828;SDS011;21042;47.620;12.188;2023-03-14T16:18:29;2.15;;;0.93;;
34828;SDS011;21042;47.620;12.188;2023-03-14T16:20:58;4.82;;;2.95;;
34828;SDS011;21042;47.620;12.188;2023-03-14T16:23:26;3.40;;;1.63;;
34828;SDS011;21042;47.620;12.188;2023-03-14T16:25:54;1.45;;;0.70;;
34828;SDS011;21042;47.620;12.188;2023-03-14T16:28:22;2.97;;;0.93;;